CheckWX is a tool to help pilots better visualize weather data.  It is not intended as a substitute for an official pre-flight weather briefing.

01:41:04 UTC

EKSP METAR
Vojens Skrydstrup Airport
Vojens, Denmark
Current

21 mins ago

EKSP 240120Z 20005KT CAVOK 01/M03 Q1037
Observed
Feb-24 @ 01:20 UTC
Wind
  • 200° at 5 KTS
Visibility
10,000+ meters
Flight Rules
VFR
Cloud Levels
  • Clear skies
Temperature
C / 34°F
Dewpoint
-3°C / 27°F
Humidity
75%
Altimeter
30.62" Hg
Pressure
1036.91 hPa
Previous

21 mins ago

EKSP 240120Z 20005KT CAVOK 01/M03 Q1037 RMK FEW200
Observed
Feb-24 @ 01:20 UTC
Wind
  • 200° at 5 KTS
Visibility
10,000+ meters
Flight Rules
VFR
Cloud Levels
  • Clear skies
Temperature
C / 34°F
Dewpoint
-3°C / 27°F
Humidity
75%
Altimeter
30.62" Hg
Pressure
1036.91 hPa
Previous

51 mins ago

EKSP 240050Z 20004KT CAVOK M00/M04 Q1038 RMK FEW200
Observed
Feb-24 @ 00:50 UTC
Wind
  • 200° at 4 KTS
Visibility
10,000+ meters
Flight Rules
VFR
Cloud Levels
  • Clear skies
Temperature
C / 32°F
Dewpoint
-4°C / 25°F
Humidity
75%
Altimeter
30.65" Hg
Pressure
1037.91 hPa